sensor_id;sensor_type;location;lat;lon;timestamp;pressure;altitude;pressure_sealevel;temperature;humidity
73700;BME280;62005;50.082;8.988;2022-07-29T00:01:17;100168.09;;;22.28;38.24
73700;BME280;62005;50.082;8.988;2022-07-29T00:03:42;100161.13;;;22.30;38.29
73700;BME280;62005;50.082;8.988;2022-07-29T00:06:08;100173.19;;;22.34;38.17
73700;BME280;62005;50.082;8.988;2022-07-29T00:08:33;100176.44;;;22.36;38.07
73700;BME280;62005;50.082;8.988;2022-07-29T00:10:58;100176.44;;;22.36;37.66
73700;BME280;62005;50.082;8.988;2022-07-29T00:13:24;100176.44;;;22.36;37.75
73700;BME280;62005;50.082;8.988;2022-07-29T00:15:49;100177.78;;;22.39;37.70
73700;BME280;62005;50.082;8.988;2022-07-29T00:18:14;100159.50;;;22.29;37.96
73700;BME280;62005;50.082;8.988;2022-07-29T00:20:40;100159.91;;;22.36;38.16
73700;BME280;62005;50.082;8.988;2022-07-29T00:23:05;100156.16;;;22.32;38.20
73700;BME280;62005;50.082;8.988;2022-07-29T00:25:30;100170.34;;;22.39;38.74
73700;BME280;62005;50.082;8.988;2022-07-29T00:27:56;100177.47;;;22.40;39.26
73700;BME280;62005;50.082;8.988;2022-07-29T00:30:22;100153.59;;;22.22;39.28
73700;BME280;62005;50.082;8.988;2022-07-29T00:32:48;100177.25;;;22.37;39.62
73700;BME280;62005;50.082;8.988;2022-07-29T00:35:13;100173.19;;;22.34;39.57
73700;BME280;62005;50.082;8.988;2022-07-29T00:37:57;100175.44;;;22.32;40.02
73700;BME280;62005;50.082;8.988;2022-07-29T00:40:22;100174.59;;;22.32;39.98
73700;BME280;62005;50.082;8.988;2022-07-29T00:42:51;100179.91;;;22.28;39.81
73700;BME280;62005;50.082;8.988;2022-07-29T00:45:17;100187.06;;;22.29;39.69
73700;BME280;62005;50.082;8.988;2022-07-29T00:47:43;100175.00;;;22.25;40.05
73700;BME280;62005;50.082;8.988;2022-07-29T00:50:10;100194.50;;;22.29;39.86
73700;BME280;62005;50.082;8.988;2022-07-29T00:52:37;100175.63;;;22.22;39.68
73700;BME280;62005;50.082;8.988;2022-07-29T00:55:04;100193.19;;;22.26;39.71
73700;BME280;62005;50.082;8.988;2022-07-29T00:57:30;100190.00;;;22.19;39.94
73700;BME280;62005;50.082;8.988;2022-07-29T00:59:57;100199.56;;;22.22;40.18
73700;BME280;62005;50.082;8.988;2022-07-29T01:02:22;100179.78;;;22.06;40.80
73700;BME280;62005;50.082;8.988;2022-07-29T01:04:48;100212.34;;;22.18;40.61
73700;BME280;62005;50.082;8.988;2022-07-29T01:07:14;100204.97;;;22.13;40.49
73700;BME280;62005;50.082;8.988;2022-07-29T01:09:40;100210.47;;;22.13;40.54
73700;BME280;62005;50.082;8.988;2022-07-29T01:12:07;100211.06;;;22.10;40.88
73700;BME280;62005;50.082;8.988;2022-07-29T01:14:33;100214.97;;;22.09;40.56
73700;BME280;62005;50.082;8.988;2022-07-29T01:17:08;100209.00;;;22.02;40.89
73700;BME280;62005;50.082;8.988;2022-07-29T01:22:28;100220.03;;;22.02;40.13
73700;BME280;62005;50.082;8.988;2022-07-29T01:30:09;100216.53;;;21.96;40.55
73700;BME280;62005;50.082;8.988;2022-07-29T01:32:36;100193.88;;;21.86;40.53
73700;BME280;62005;50.082;8.988;2022-07-29T01:35:28;100204.81;;;21.91;39.99
73700;BME280;62005;50.082;8.988;2022-07-29T01:38:09;100203.69;;;21.92;40.59
73700;BME280;62005;50.082;8.988;2022-07-29T01:40:46;100196.13;;;21.84;40.66
73700;BME280;62005;50.082;8.988;2022-07-29T01:43:17;100200.00;;;21.83;40.71
73700;BME280;62005;50.082;8.988;2022-07-29T01:45:47;100193.88;;;21.86;40.77
73700;BME280;62005;50.082;8.988;2022-07-29T01:48:31;100188.47;;;21.81;40.99
73700;BME280;62005;50.082;8.988;2022-07-29T01:51:07;100178.13;;;21.73;40.84
73700;BME280;62005;50.082;8.988;2022-07-29T01:53:52;100164.44;;;21.68;41.17
73700;BME280;62005;50.082;8.988;2022-07-29T01:56:19;100191.34;;;21.71;41.20
73700;BME280;62005;50.082;8.988;2022-07-29T01:58:48;100197.47;;;21.68;41.53
73700;BME280;62005;50.082;8.988;2022-07-29T02:01:15;100186.00;;;21.61;41.31
73700;BME280;62005;50.082;8.988;2022-07-29T02:03:42;100193.13;;;21.62;41.31
73700;BME280;62005;50.082;8.988;2022-07-29T02:06:09;100189.38;;;21.58;41.28
73700;BME280;62005;50.082;8.988;2022-07-29T02:08:37;100183.34;;;21.56;41.19
73700;BME280;62005;50.082;8.988;2022-07-29T02:11:04;100177.69;;;21.47;41.26
73700;BME280;62005;50.082;8.988;2022-07-29T02:13:31;100179.91;;;21.45;41.18
73700;BME280;62005;50.082;8.988;2022-07-29T02:15:58;100175.31;;;21.41;41.68
73700;BME280;62005;50.082;8.988;2022-07-29T02:18:27;100161.66;;;21.36;42.08
73700;BME280;62005;50.082;8.988;2022-07-29T02:20:55;100175.91;;;21.38;41.44
73700;BME280;62005;50.082;8.988;2022-07-29T02:23:23;100174.88;;;21.34;41.52
73700;BME280;62005;50.082;8.988;2022-07-29T02:25:52;100162.41;;;21.23;41.51
73700;BME280;62005;50.082;8.988;2022-07-29T02:28:19;100169.53;;;21.24;41.40
73700;BME280;62005;50.082;8.988;2022-07-29T02:30:45;100177.75;;;21.24;42.22
73700;BME280;62005;50.082;8.988;2022-07-29T02:33:14;100177.88;;;21.19;42.49
73700;BME280;62005;50.082;8.988;2022-07-29T02:35:41;100183.94;;;21.16;42.61
73700;BME280;62005;50.082;8.988;2022-07-29T02:38:12;100167.16;;;20.99;42.91
73700;BME280;62005;50.082;8.988;2022-07-29T02:40:58;100184.66;;;21.03;43.00
73700;BME280;62005;50.082;8.988;2022-07-29T02:43:26;100142.13;;;20.77;43.11
73700;BME280;62005;50.082;8.988;2022-07-29T02:45:53;100177.06;;;20.95;43.04
73700;BME280;62005;50.082;8.988;2022-07-29T02:48:22;100174.91;;;20.92;42.96
73700;BME280;62005;50.082;8.988;2022-07-29T02:51:05;100168.88;;;20.90;43.50
73700;BME280;62005;50.082;8.988;2022-07-29T02:53:33;100160.09;;;20.88;42.95
73700;BME280;62005;50.082;8.988;2022-07-29T02:56:02;100170.47;;;20.96;43.06
73700;BME280;62005;50.082;8.988;2022-07-29T02:58:34;100173.78;;;20.93;43.26
73700;BME280;62005;50.082;8.988;2022-07-29T03:01:11;100160.16;;;20.83;43.79
73700;BME280;62005;50.082;8.988;2022-07-29T03:03:39;100150.66;;;20.75;43.92
73700;BME280;62005;50.082;8.988;2022-07-29T03:06:08;100143.38;;;20.65;44.34
73700;BME280;62005;50.082;8.988;2022-07-29T03:08:34;100156.75;;;20.72;44.02
73700;BME280;62005;50.082;8.988;2022-07-29T03:11:00;100159.81;;;20.70;44.20
73700;BME280;62005;50.082;8.988;2022-07-29T03:13:27;100163.19;;;20.62;43.54
73700;BME280;62005;50.082;8.988;2022-07-29T03:15:53;100160.22;;;20.59;44.30
73700;BME280;62005;50.082;8.988;2022-07-29T03:18:19;100161.66;;;20.51;44.61
73700;BME280;62005;50.082;8.988;2022-07-29T03:20:44;100166.13;;;20.47;44.50
73700;BME280;62005;50.082;8.988;2022-07-29T03:23:10;100171.69;;;20.42;44.87
73700;BME280;62005;50.082;8.988;2022-07-29T03:25:35;100166.25;;;20.37;44.86
73700;BME280;62005;50.082;8.988;2022-07-29T03:28:00;100164.66;;;20.31;45.01
73700;BME280;62005;50.082;8.988;2022-07-29T03:30:26;100152.03;;;20.30;44.42
73700;BME280;62005;50.082;8.988;2022-07-29T03:32:52;100149.78;;;20.37;44.57
73700;BME280;62005;50.082;8.988;2022-07-29T03:35:19;100156.34;;;20.36;45.09
73700;BME280;62005;50.082;8.988;2022-07-29T03:37:45;100161.34;;;20.34;45.14
73700;BME280;62005;50.082;8.988;2022-07-29T03:40:16;100143.56;;;20.27;45.14
73700;BME280;62005;50.082;8.988;2022-07-29T03:42:45;100131.31;;;20.19;45.27
73700;BME280;62005;50.082;8.988;2022-07-29T03:45:13;100138.91;;;20.27;45.47
73700;BME280;62005;50.082;8.988;2022-07-29T03:47:48;100129.88;;;20.22;45.45
73700;BME280;62005;50.082;8.988;2022-07-29T03:50:16;100142.75;;;20.26;45.47
73700;BME280;62005;50.082;8.988;2022-07-29T03:52:42;100142.22;;;20.24;45.47
73700;BME280;62005;50.082;8.988;2022-07-29T03:55:08;100143.31;;;20.23;45.44
73700;BME280;62005;50.082;8.988;2022-07-29T03:57:34;100143.91;;;20.20;46.07
73700;BME280;62005;50.082;8.988;2022-07-29T04:00:03;100139.56;;;20.14;45.82
73700;BME280;62005;50.082;8.988;2022-07-29T04:02:30;100126.69;;;20.10;45.52
73700;BME280;62005;50.082;8.988;2022-07-29T04:04:56;100123.94;;;20.15;45.26
73700;BME280;62005;50.082;8.988;2022-07-29T04:07:22;100116.53;;;20.10;44.50
73700;BME280;62005;50.082;8.988;2022-07-29T04:09:47;100133.75;;;20.21;44.30
73700;BME280;62005;50.082;8.988;2022-07-29T04:12:12;100136.78;;;20.19;44.24
73700;BME280;62005;50.082;8.988;2022-07-29T04:14:37;100144.97;;;20.24;45.12
73700;BME280;62005;50.082;8.988;2022-07-29T04:17:03;100145.53;;;20.21;45.41
73700;BME280;62005;50.082;8.988;2022-07-29T04:19:29;100150.53;;;20.19;45.50
73700;BME280;62005;50.082;8.988;2022-07-29T04:21:55;100146.94;;;20.19;45.58
73700;BME280;62005;50.082;8.988;2022-07-29T04:24:21;100140.41;;;20.15;45.55
73700;BME280;62005;50.082;8.988;2022-07-29T04:26:47;100147.25;;;20.17;45.03
73700;BME280;62005;50.082;8.988;2022-07-29T04:29:12;100135.22;;;20.08;44.76
73700;BME280;62005;50.082;8.988;2022-07-29T04:31:40;100142.38;;;20.09;44.67
73700;BME280;62005;50.082;8.988;2022-07-29T04:34:05;100146.72;;;20.15;45.31
73700;BME280;62005;50.082;8.988;2022-07-29T04:36:30;100139.09;;;20.07;44.87
73700;BME280;62005;50.082;8.988;2022-07-29T04:38:56;100150.53;;;20.14;44.95
73700;BME280;62005;50.082;8.988;2022-07-29T04:41:21;100143.41;;;20.13;44.67
73700;BME280;62005;50.082;8.988;2022-07-29T04:43:47;100144.50;;;20.17;44.39
73700;BME280;62005;50.082;8.988;2022-07-29T04:46:12;100142.28;;;20.19;44.81
73700;BME280;62005;50.082;8.988;2022-07-29T04:48:37;100142.28;;;20.19;44.75
73700;BME280;62005;50.082;8.988;2022-07-29T04:51:03;100147.19;;;20.22;45.24
73700;BME280;62005;50.082;8.988;2022-07-29T04:53:28;100141.13;;;20.25;45.28
73700;BME280;62005;50.082;8.988;2022-07-29T04:55:53;100135.09;;;20.23;45.52
73700;BME280;62005;50.082;8.988;2022-07-29T04:58:19;100145.47;;;20.26;45.36
73700;BME280;62005;50.082;8.988;2022-07-29T05:00:44;100148.81;;;20.23;45.53
73700;BME280;62005;50.082;8.988;2022-07-29T05:03:10;100149.41;;;20.20;45.86
73700;BME280;62005;50.082;8.988;2022-07-29T05:05:35;100139.56;;;20.14;45.78
73700;BME280;62005;50.082;8.988;2022-07-29T05:08:00;100136.28;;;20.12;45.67
73700;BME280;62005;50.082;8.988;2022-07-29T05:10:26;100148.88;;;20.13;45.85
73700;BME280;62005;50.082;8.988;2022-07-29T05:12:51;100119.16;;;19.97;45.91
73700;BME280;62005;50.082;8.988;2022-07-29T05:15:16;100147.56;;;20.11;46.44
73700;BME280;62005;50.082;8.988;2022-07-29T05:17:43;100145.88;;;20.15;46.41
73700;BME280;62005;50.082;8.988;2022-07-29T05:20:08;100142.38;;;20.09;45.79
73700;BME280;62005;50.082;8.988;2022-07-29T05:22:34;100143.44;;;20.08;45.94
73700;BME280;62005;50.082;8.988;2022-07-29T05:24:59;100138.00;;;20.03;45.69
73700;BME280;62005;50.082;8.988;2022-07-29T05:27:24;100149.47;;;20.10;45.43
73700;BME280;62005;50.082;8.988;2022-07-29T05:29:50;100150.00;;;20.12;45.56
73700;BME280;62005;50.082;8.988;2022-07-29T05:32:15;100146.72;;;20.15;44.95
73700;BME280;62005;50.082;8.988;2022-07-29T05:34:41;100150.72;;;20.28;45.57
73700;BME280;62005;50.082;8.988;2022-07-29T05:37:07;100145.44;;;20.31;46.11
73700;BME280;62005;50.082;8.988;2022-07-29T05:39:32;100144.16;;;20.47;45.51
73700;BME280;62005;50.082;8.988;2022-07-29T05:41:57;100158.84;;;20.80;44.99
73700;BME280;62005;50.082;8.988;2022-07-29T05:44:23;100145.41;;;21.02;44.93
73700;BME280;62005;50.082;8.988;2022-07-29T05:46:48;100144.69;;;21.29;44.24
73700;BME280;62005;50.082;8.988;2022-07-29T05:49:13;100157.50;;;21.70;43.25
73700;BME280;62005;50.082;8.988;2022-07-29T05:51:39;100139.28;;;21.93;42.94
73700;BME280;62005;50.082;8.988;2022-07-29T05:54:04;100135.44;;;22.21;42.54
73700;BME280;62005;50.082;8.988;2022-07-29T05:56:29;100156.66;;;22.48;41.84
73700;BME280;62005;50.082;8.988;2022-07-29T05:58:55;100127.81;;;22.59;41.50
73700;BME280;62005;50.082;8.988;2022-07-29T06:01:20;100148.19;;;22.98;41.07
73700;BME280;62005;50.082;8.988;2022-07-29T06:03:45;100156.34;;;23.25;40.71
73700;BME280;62005;50.082;8.988;2022-07-29T06:06:11;100159.38;;;23.51;40.32
73700;BME280;62005;50.082;8.988;2022-07-29T06:08:37;100166.97;;;23.90;39.50
73700;BME280;62005;50.082;8.988;2022-07-29T06:11:04;100164.88;;;24.17;39.64
73700;BME280;62005;50.082;8.988;2022-07-29T06:13:30;100158.13;;;24.32;38.16
73700;BME280;62005;50.082;8.988;2022-07-29T06:15:55;100173.41;;;24.38;38.55
73700;BME280;62005;50.082;8.988;2022-07-29T06:18:21;100169.19;;;24.32;37.28
73700;BME280;62005;50.082;8.988;2022-07-29T06:20:52;100178.88;;;24.21;37.82
73700;BME280;62005;50.082;8.988;2022-07-29T06:23:18;100175.25;;;24.12;38.00
73700;BME280;62005;50.082;8.988;2022-07-29T06:25:44;100173.88;;;24.01;38.02
73700;BME280;62005;50.082;8.988;2022-07-29T06:28:10;100172.66;;;23.93;38.54
73700;BME280;62005;50.082;8.988;2022-07-29T06:30:35;100163.97;;;23.78;39.04
73700;BME280;62005;50.082;8.988;2022-07-29T06:33:01;100169.47;;;23.78;39.14
73700;BME280;62005;50.082;8.988;2022-07-29T06:35:27;100172.97;;;23.92;39.84
73700;BME280;62005;50.082;8.988;2022-07-29T06:37:54;100162.44;;;24.16;39.15
73700;BME280;62005;50.082;8.988;2022-07-29T06:40:20;100170.22;;;24.53;38.53
73700;BME280;62005;50.082;8.988;2022-07-29T06:43:05;100154.56;;;24.79;38.08
73700;BME280;62005;50.082;8.988;2022-07-29T06:45:34;100174.97;;;25.17;36.91
73700;BME280;62005;50.082;8.988;2022-07-29T06:48:00;100161.81;;;25.31;35.97
73700;BME280;62005;50.082;8.988;2022-07-29T06:50:25;100162.31;;;25.50;36.05
73700;BME280;62005;50.082;8.988;2022-07-29T06:52:52;100162.00;;;25.78;35.58
73700;BME280;62005;50.082;8.988;2022-07-29T06:55:17;100171.72;;;26.01;35.86
73700;BME280;62005;50.082;8.988;2022-07-29T06:57:45;100172.00;;;26.25;34.87
73700;BME280;62005;50.082;8.988;2022-07-29T07:00:10;100175.88;;;26.41;34.46
73700;BME280;62005;50.082;8.988;2022-07-29T07:02:36;100165.38;;;26.55;35.68
73700;BME280;62005;50.082;8.988;2022-07-29T07:05:01;100162.19;;;26.82;35.18
73700;BME280;62005;50.082;8.988;2022-07-29T07:07:27;100176.88;;;27.03;32.55
73700;BME280;62005;50.082;8.988;2022-07-29T07:09:52;100183.41;;;27.07;32.42
73700;BME280;62005;50.082;8.988;2022-07-29T07:12:18;100169.53;;;27.07;32.54
73700;BME280;62005;50.082;8.988;2022-07-29T07:14:43;100178.25;;;27.18;32.79
73700;BME280;62005;50.082;8.988;2022-07-29T07:17:08;100165.00;;;27.23;31.39
73700;BME280;62005;50.082;8.988;2022-07-29T07:19:34;100176.41;;;27.30;32.49
73700;BME280;62005;50.082;8.988;2022-07-29T07:21:59;100178.31;;;27.38;31.42
73700;BME280;62005;50.082;8.988;2022-07-29T07:24:25;100175.59;;;27.50;31.34
73700;BME280;62005;50.082;8.988;2022-07-29T07:26:51;100187.50;;;27.71;31.89
73700;BME280;62005;50.082;8.988;2022-07-29T07:29:16;100175.03;;;27.77;31.79
73700;BME280;62005;50.082;8.988;2022-07-29T07:31:42;100176.97;;;27.97;32.06
73700;BME280;62005;50.082;8.988;2022-07-29T07:34:08;100175.69;;;28.28;32.12
73700;BME280;62005;50.082;8.988;2022-07-29T07:36:34;100185.38;;;28.54;30.61
73700;BME280;62005;50.082;8.988;2022-07-29T07:38:59;100173.44;;;28.66;31.13
73700;BME280;62005;50.082;8.988;2022-07-29T07:41:25;100189.66;;;28.88;30.33
73700;BME280;62005;50.082;8.988;2022-07-29T07:43:50;100193.13;;;29.09;30.96
73700;BME280;62005;50.082;8.988;2022-07-29T07:46:16;100186.63;;;29.29;30.52
73700;BME280;62005;50.082;8.988;2022-07-29T07:48:41;100183.09;;;29.44;28.86
73700;BME280;62005;50.082;8.988;2022-07-29T07:51:06;100192.63;;;29.43;28.12
73700;BME280;62005;50.082;8.988;2022-07-29T07:53:32;100184.06;;;29.36;28.97
73700;BME280;62005;50.082;8.988;2022-07-29T07:55:58;100182.78;;;29.33;28.66
73700;BME280;62005;50.082;8.988;2022-07-29T07:58:23;100195.41;;;29.43;28.31
73700;BME280;62005;50.082;8.988;2022-07-29T08:00:48;100196.06;;;29.52;29.83
73700;BME280;62005;50.082;8.988;2022-07-29T08:03:14;100177.97;;;29.58;29.10
73700;BME280;62005;50.082;8.988;2022-07-29T08:05:40;100184.19;;;29.79;29.05
73700;BME280;62005;50.082;8.988;2022-07-29T08:08:06;100178.47;;;29.88;29.08
73700;BME280;62005;50.082;8.988;2022-07-29T08:10:31;100148.41;;;29.81;29.46
73700;BME280;62005;50.082;8.988;2022-07-29T08:13:15;100180.13;;;30.04;29.19
73700;BME280;62005;50.082;8.988;2022-07-29T08:15:42;100168.97;;;30.04;29.26
73700;BME280;62005;50.082;8.988;2022-07-29T08:18:10;100190.25;;;30.24;29.15
73700;BME280;62005;50.082;8.988;2022-07-29T08:20:36;100191.53;;;30.42;28.52
73700;BME280;62005;50.082;8.988;2022-07-29T08:23:03;100177.31;;;30.47;29.48
73700;BME280;62005;50.082;8.988;2022-07-29T08:25:29;100192.06;;;30.63;28.69
73700;BME280;62005;50.082;8.988;2022-07-29T08:27:55;100186.50;;;30.63;28.36
73700;BME280;62005;50.082;8.988;2022-07-29T08:30:20;100185.78;;;30.67;28.31
73700;BME280;62005;50.082;8.988;2022-07-29T08:32:47;100187.59;;;30.59;27.64
73700;BME280;62005;50.082;8.988;2022-07-29T08:35:13;100185.03;;;30.70;28.55
73700;BME280;62005;50.082;8.988;2022-07-29T08:37:38;100168.28;;;30.70;28.25
73700;BME280;62005;50.082;8.988;2022-07-29T08:40:04;100183.97;;;30.74;27.97
73700;BME280;62005;50.082;8.988;2022-07-29T08:42:31;100179.19;;;30.75;27.93
73700;BME280;62005;50.082;8.988;2022-07-29T08:44:57;100194.69;;;30.88;27.74
73700;BME280;62005;50.082;8.988;2022-07-29T08:47:23;100182.91;;;30.79;27.66
73700;BME280;62005;50.082;8.988;2022-07-29T08:49:51;100191.44;;;30.70;27.83
73700;BME280;62005;50.082;8.988;2022-07-29T08:52:17;100173.34;;;30.48;28.15
73700;BME280;62005;50.082;8.988;2022-07-29T08:54:44;100172.63;;;30.51;29.08
73700;BME280;62005;50.082;8.988;2022-07-29T08:57:13;100176.78;;;30.57;28.19
73700;BME280;62005;50.082;8.988;2022-07-29T08:59:40;100158.59;;;30.32;28.46
73700;BME280;62005;50.082;8.988;2022-07-29T09:02:16;100181.91;;;30.55;28.92
73700;BME280;62005;50.082;8.988;2022-07-29T09:04:43;100159.13;;;30.53;28.24
73700;BME280;62005;50.082;8.988;2022-07-29T09:07:14;100189.56;;;30.58;27.98
73700;BME280;62005;50.082;8.988;2022-07-29T09:09:41;100158.06;;;30.42;28.92
73700;BME280;62005;50.082;8.988;2022-07-29T09:12:06;100189.28;;;30.63;29.97
73700;BME280;62005;50.082;8.988;2022-07-29T09:14:33;100171.34;;;30.64;29.28
73700;BME280;62005;50.082;8.988;2022-07-29T09:16:59;100177.94;;;30.72;29.16
73700;BME280;62005;50.082;8.988;2022-07-29T09:19:30;100168.84;;;30.59;28.09
73700;BME280;62005;50.082;8.988;2022-07-29T09:21:57;100174.25;;;30.52;29.32
73700;BME280;62005;50.082;8.988;2022-07-29T09:25:05;100180.38;;;30.42;28.43
73700;BME280;62005;50.082;8.988;2022-07-29T09:27:21;100175.16;;;30.56;29.04
73700;BME280;62005;50.082;8.988;2022-07-29T09:29:55;100158.22;;;30.49;29.00
73700;BME280;62005;50.082;8.988;2022-07-29T09:32:22;100158.78;;;30.39;28.91
73700;BME280;62005;50.082;8.988;2022-07-29T09:34:48;100173.28;;;30.17;29.56
73700;BME280;62005;50.082;8.988;2022-07-29T09:37:26;100157.41;;;29.90;29.52
73700;BME280;62005;50.082;8.988;2022-07-29T09:39:51;100156.69;;;29.93;30.26
73700;BME280;62005;50.082;8.988;2022-07-29T09:42:27;100156.16;;;30.03;30.10
73700;BME280;62005;50.082;8.988;2022-07-29T09:44:53;100157.03;;;30.19;30.66
73700;BME280;62005;50.082;8.988;2022-07-29T09:47:19;100141.84;;;30.32;30.32
73700;BME280;62005;50.082;8.988;2022-07-29T09:49:57;100150.22;;;30.48;30.29
73700;BME280;62005;50.082;8.988;2022-07-29T09:52:28;100144.91;;;30.58;30.06
73700;BME280;62005;50.082;8.988;2022-07-29T09:55:07;100148.34;;;30.68;29.91
73700;BME280;62005;50.082;8.988;2022-07-29T09:57:33;100155.88;;;30.83;29.84
73700;BME280;62005;50.082;8.988;2022-07-29T10:00:18;100146.53;;;30.91;29.73
73700;BME280;62005;50.082;8.988;2022-07-29T10:02:46;100160.72;;;31.01;29.59
73700;BME280;62005;50.082;8.988;2022-07-29T10:05:22;100154.63;;;30.96;29.07
73700;BME280;62005;50.082;8.988;2022-07-29T10:07:53;100141.66;;;30.88;29.50
73700;BME280;62005;50.082;8.988;2022-07-29T10:10:29;100149.06;;;30.80;29.58
73700;BME280;62005;50.082;8.988;2022-07-29T10:13:02;100136.16;;;30.76;29.57
73700;BME280;62005;50.082;8.988;2022-07-29T10:15:30;100134.44;;;30.87;29.59
73700;BME280;62005;50.082;8.988;2022-07-29T10:17:56;100125.78;;;30.92;30.44
73700;BME280;62005;50.082;8.988;2022-07-29T10:20:23;100125.50;;;30.97;29.60
73700;BME280;62005;50.082;8.988;2022-07-29T10:22:49;100122.81;;;31.00;29.31
73700;BME280;62005;50.082;8.988;2022-07-29T10:25:16;100143.03;;;31.13;30.02
73700;BME280;62005;50.082;8.988;2022-07-29T10:27:52;100150.66;;;30.97;29.82
73700;BME280;62005;50.082;8.988;2022-07-29T10:30:19;100146.34;;;30.84;29.71
73700;BME280;62005;50.082;8.988;2022-07-29T10:43:48;100112.03;;;30.68;31.43
73700;BME280;62005;50.082;8.988;2022-07-29T10:46:14;100121.59;;;30.82;30.59
73700;BME280;62005;50.082;8.988;2022-07-29T10:57:16;100133.78;;;31.28;30.17
73700;BME280;62005;50.082;8.988;2022-07-29T10:59:43;100135.41;;;31.29;30.47
73700;BME280;62005;50.082;8.988;2022-07-29T11:07:23;100114.22;;;31.09;30.74
73700;BME280;62005;50.082;8.988;2022-07-29T11:15:13;100116.88;;;31.21;31.14
73700;BME280;62005;50.082;8.988;2022-07-29T11:18:03;100104.78;;;31.32;30.78
73700;BME280;62005;50.082;8.988;2022-07-29T11:20:48;100115.72;;;31.41;31.16
73700;BME280;62005;50.082;8.988;2022-07-29T11:23:34;100119.13;;;31.50;31.00
73700;BME280;62005;50.082;8.988;2022-07-29T11:26:15;100123.25;;;31.56;31.11
73700;BME280;62005;50.082;8.988;2022-07-29T11:34:16;100121.91;;;31.69;30.95
73700;BME280;62005;50.082;8.988;2022-07-29T11:44:59;100110.28;;;31.86;30.92
73700;BME280;62005;50.082;8.988;2022-07-29T11:47:26;100094.66;;;31.85;31.26
73700;BME280;62005;50.082;8.988;2022-07-29T11:49:54;100104.84;;;31.93;30.51
73700;BME280;62005;50.082;8.988;2022-07-29T11:52:20;100096.75;;;31.88;30.29
73700;BME280;62005;50.082;8.988;2022-07-29T11:54:48;100087.91;;;31.86;30.66
73700;BME280;62005;50.082;8.988;2022-07-29T11:57:18;100103.94;;;31.89;30.94
73700;BME280;62005;50.082;8.988;2022-07-29T11:59:46;100081.59;;;31.89;31.27
73700;BME280;62005;50.082;8.988;2022-07-29T12:02:13;100088.91;;;31.97;30.71
73700;BME280;62005;50.082;8.988;2022-07-29T12:04:53;100084.22;;;32.01;30.85
73700;BME280;62005;50.082;8.988;2022-07-29T12:07:29;100088.91;;;31.97;30.50
73700;BME280;62005;50.082;8.988;2022-07-29T12:09:55;100073.78;;;31.98;30.71
73700;BME280;62005;50.082;8.988;2022-07-29T12:12:21;100075.00;;;32.01;31.20
73700;BME280;62005;50.082;8.988;2022-07-29T12:14:47;100059.34;;;31.96;30.98
73700;BME280;62005;50.082;8.988;2022-07-29T12:17:30;100066.66;;;32.04;30.92
73700;BME280;62005;50.082;8.988;2022-07-29T12:19:57;100063.56;;;32.09;30.63
73700;BME280;62005;50.082;8.988;2022-07-29T12:22:28;100070.00;;;32.13;29.90
73700;BME280;62005;50.082;8.988;2022-07-29T12:24:54;100057.84;;;32.02;29.81
73700;BME280;62005;50.082;8.988;2022-07-29T12:27:20;100061.84;;;32.01;30.22
73700;BME280;62005;50.082;8.988;2022-07-29T12:29:58;100062.28;;;32.03;30.25
73700;BME280;62005;50.082;8.988;2022-07-29T12:32:39;100059.47;;;32.03;30.46
73700;BME280;62005;50.082;8.988;2022-07-29T12:35:11;100064.31;;;32.06;31.13
73700;BME280;62005;50.082;8.988;2022-07-29T12:37:39;100060.94;;;31.97;29.85
73700;BME280;62005;50.082;8.988;2022-07-29T12:40:07;100053.00;;;31.99;29.45
73700;BME280;62005;50.082;8.988;2022-07-29T12:42:33;100019.03;;;31.78;30.08
73700;BME280;62005;50.082;8.988;2022-07-29T12:44:59;100026.31;;;31.82;30.20
73700;BME280;62005;50.082;8.988;2022-07-29T12:47:24;100033.72;;;31.94;30.25
73700;BME280;62005;50.082;8.988;2022-07-29T12:49:51;100048.28;;;32.03;29.83
73700;BME280;62005;50.082;8.988;2022-07-29T12:52:33;100026.94;;;31.95;29.78
73700;BME280;62005;50.082;8.988;2022-07-29T12:54:59;100020.00;;;31.86;30.08
73700;BME280;62005;50.082;8.988;2022-07-29T12:57:25;100031.38;;;31.96;29.55
73700;BME280;62005;50.082;8.988;2022-07-29T13:02:25;100028.00;;;31.87;29.86
73700;BME280;62005;50.082;8.988;2022-07-29T13:04:58;100027.13;;;31.83;30.43
73700;BME280;62005;50.082;8.988;2022-07-29T13:07:29;100027.00;;;31.76;29.64
73700;BME280;62005;50.082;8.988;2022-07-29T13:10:16;100017.00;;;31.75;29.96
73700;BME280;62005;50.082;8.988;2022-07-29T13:13:01;100015.81;;;31.76;30.38
73700;BME280;62005;50.082;8.988;2022-07-29T13:15:27;100024.25;;;31.79;30.19
73700;BME280;62005;50.082;8.988;2022-07-29T13:17:52;100016.56;;;31.73;30.58
73700;BME280;62005;50.082;8.988;2022-07-29T13:20:18;99963.25;;;31.40;30.50
73700;BME280;62005;50.082;8.988;2022-07-29T13:22:47;100005.09;;;31.59;30.30
73700;BME280;62005;50.082;8.988;2022-07-29T13:25:13;100022.91;;;31.51;30.30
73700;BME280;62005;50.082;8.988;2022-07-29T13:27:39;100009.63;;;31.44;30.81
73700;BME280;62005;50.082;8.988;2022-07-29T13:30:09;100009.91;;;31.39;30.60
73700;BME280;62005;50.082;8.988;2022-07-29T13:32:35;100017.63;;;31.46;31.09
73700;BME280;62005;50.082;8.988;2022-07-29T13:35:06;99999.63;;;31.43;31.31
73700;BME280;62005;50.082;8.988;2022-07-29T13:37:33;100016.50;;;31.50;31.12
73700;BME280;62005;50.082;8.988;2022-07-29T13:40:01;100010.44;;;31.45;30.47
73700;BME280;62005;50.082;8.988;2022-07-29T13:42:28;100011.91;;;31.39;30.59
73700;BME280;62005;50.082;8.988;2022-07-29T13:44:53;100003.81;;;31.34;31.37
73700;BME280;62005;50.082;8.988;2022-07-29T13:47:19;100011.31;;;31.30;30.57
73700;BME280;62005;50.082;8.988;2022-07-29T13:49:45;100003.22;;;31.25;30.86